createdAt,value
2017-11-26T00:01:10.384Z,2.80
2017-11-26T00:03:38.358Z,2.60
2017-11-26T00:06:06.337Z,2.70
2017-11-26T00:08:34.346Z,2.60
2017-11-26T00:11:02.341Z,2.70
2017-11-26T00:13:30.342Z,2.70
2017-11-26T00:15:58.528Z,2.60
2017-11-26T00:18:27.289Z,2.60
2017-11-26T00:20:55.273Z,2.50
2017-11-26T00:23:23.289Z,2.60
2017-11-26T00:25:51.290Z,2.50
2017-11-26T00:28:19.314Z,2.40
2017-11-26T00:30:47.298Z,2.50
2017-11-26T00:33:15.284Z,2.50
2017-11-26T00:35:43.273Z,2.50
2017-11-26T00:38:11.318Z,2.50
2017-11-26T00:40:40.057Z,2.50
2017-11-26T00:43:08.037Z,2.40
2017-11-26T00:45:36.045Z,2.50
2017-11-26T00:48:04.033Z,2.50
2017-11-26T00:50:32.017Z,2.50
2017-11-26T00:53:00.046Z,2.40
2017-11-26T00:55:28.234Z,2.30
2017-11-26T00:57:56.278Z,2.30
2017-11-26T01:00:24.402Z,2.30
2017-11-26T01:02:52.594Z,2.30
2017-11-26T01:05:20.650Z,2.30
2017-11-26T01:07:49.459Z,2.30
2017-11-26T01:10:18.238Z,2.20
2017-11-26T01:12:46.213Z,2.20
2017-11-26T01:15:14.249Z,2.30
2017-11-26T01:17:42.246Z,2.50
2017-11-26T01:20:10.234Z,2.60
2017-11-26T01:22:43.212Z,2.50
2017-11-26T01:25:11.194Z,2.60
2017-11-26T01:27:39.186Z,2.60
2017-11-26T01:30:07.197Z,2.70
2017-11-26T01:32:35.224Z,2.80
2017-11-26T01:35:04.007Z,2.80
2017-11-26T01:37:32.070Z,2.80
2017-11-26T01:40:00.119Z,2.80
2017-11-26T01:42:28.141Z,2.90
2017-11-26T01:44:56.159Z,2.90
2017-11-26T01:47:25.081Z,3.00
2017-11-26T01:49:53.137Z,2.90
2017-11-26T01:52:21.961Z,2.90
2017-11-26T01:54:49.976Z,2.90
2017-11-26T01:57:18.016Z,3.00
2017-11-26T01:59:46.795Z,3.00
2017-11-26T02:02:14.856Z,3.00
2017-11-26T02:04:42.900Z,3.10
2017-11-26T02:07:10.922Z,3.10
2017-11-26T02:09:38.961Z,3.10
2017-11-26T02:12:06.988Z,3.10
2017-11-26T02:14:35.022Z,3.10
2017-11-26T02:17:03.814Z,3.10
2017-11-26T02:19:32.628Z,3.20
2017-11-26T02:22:01.404Z,3.30
2017-11-26T02:24:29.452Z,3.20
2017-11-26T02:26:57.473Z,3.20
2017-11-26T02:29:25.512Z,3.20
2017-11-26T02:32:05.512Z,3.30
2017-11-26T02:34:45.364Z,3.30
2017-11-26T02:37:13.393Z,3.20
2017-11-26T02:39:41.423Z,3.30
2017-11-26T02:42:09.448Z,3.20
2017-11-26T02:44:38.230Z,3.20
2017-11-26T02:47:06.293Z,3.10
2017-11-26T02:49:34.310Z,3.20
2017-11-26T02:52:03.095Z,3.30
2017-11-26T02:54:31.125Z,3.30
2017-11-26T02:56:59.147Z,3.30
2017-11-26T02:59:27.175Z,3.30
2017-11-26T03:01:55.202Z,3.30
2017-11-26T03:04:23.229Z,3.30
2017-11-26T03:06:52.015Z,3.20
2017-11-26T03:09:20.083Z,3.10
2017-11-26T03:11:48.099Z,3.20
2017-11-26T03:14:16.904Z,3.30
2017-11-26T03:16:45.735Z,3.30
2017-11-26T03:19:13.747Z,3.30
2017-11-26T03:21:41.782Z,3.40
2017-11-26T03:24:10.573Z,3.50
2017-11-26T03:26:39.374Z,3.40
2017-11-26T03:29:08.156Z,3.30
2017-11-26T03:31:36.226Z,3.30
2017-11-26T03:34:04.240Z,3.30
2017-11-26T03:36:33.027Z,3.10
2017-11-26T03:39:01.056Z,3.10
2017-11-26T03:41:29.068Z,3.10
2017-11-26T03:43:57.106Z,3.10
2017-11-26T03:46:25.131Z,3.10
2017-11-26T03:48:53.164Z,3.10
2017-11-26T03:51:21.943Z,2.90
2017-11-26T03:53:50.799Z,2.90
2017-11-26T03:56:18.816Z,2.90
2017-11-26T03:58:46.830Z,4.30
2017-11-26T04:01:15.637Z,2.80
2017-11-26T04:03:43.653Z,2.70
2017-11-26T04:06:11.689Z,2.70
2017-11-26T04:08:40.472Z,2.70
2017-11-26T04:11:08.497Z,2.60
2017-11-26T04:13:36.518Z,2.70
2017-11-26T04:16:04.543Z,2.70
2017-11-26T04:18:33.332Z,2.80
2017-11-26T04:21:01.397Z,2.70
2017-11-26T04:23:29.411Z,2.80
2017-11-26T04:25:58.196Z,3.00
2017-11-26T04:28:26.991Z,2.90
2017-11-26T04:30:55.016Z,2.90
2017-11-26T04:33:23.048Z,3.00
2017-11-26T04:35:51.093Z,3.00
2017-11-26T04:38:19.158Z,3.00
2017-11-26T04:40:47.172Z,3.10
2017-11-26T04:43:15.193Z,3.00
2017-11-26T04:45:43.227Z,3.00
2017-11-26T04:48:11.249Z,3.00
2017-11-26T04:50:39.280Z,3.00
2017-11-26T04:53:07.295Z,2.90
2017-11-26T04:55:35.328Z,2.90
2017-11-26T04:58:04.112Z,3.00
2017-11-26T05:00:32.945Z,3.00
2017-11-26T05:03:00.965Z,2.90
2017-11-26T05:05:29.000Z,3.00
2017-11-26T05:07:57.789Z,3.00
2017-11-26T05:10:25.811Z,3.00
2017-11-26T05:12:53.843Z,3.00
2017-11-26T05:15:21.901Z,3.00
2017-11-26T05:17:49.929Z,3.00
2017-11-26T05:20:17.941Z,3.00
2017-11-26T05:22:45.972Z,3.10
2017-11-26T05:25:13.996Z,3.00
2017-11-26T05:27:42.029Z,3.00
2017-11-26T05:30:10.044Z,3.00
2017-11-26T05:32:38.847Z,2.90
2017-11-26T05:35:07.618Z,2.80
2017-11-26T05:37:37.158Z,2.80
2017-11-26T05:40:05.180Z,2.80
2017-11-26T05:42:33.233Z,2.80
2017-11-26T05:45:02.012Z,2.90
2017-11-26T05:47:30.028Z,2.80
2017-11-26T05:49:58.074Z,2.90
2017-11-26T05:52:26.083Z,2.80
2017-11-26T05:54:54.140Z,2.80
2017-11-26T05:57:22.168Z,2.80
2017-11-26T05:59:50.206Z,2.70
2017-11-26T06:02:19.748Z,2.80
2017-11-26T06:04:48.569Z,2.80
2017-11-26T06:07:16.583Z,2.70
2017-11-26T06:09:44.596Z,2.80
2017-11-26T06:12:13.411Z,2.90
2017-11-26T06:14:41.739Z,2.80
2017-11-26T06:17:09.760Z,2.90
2017-11-26T06:19:37.775Z,2.90
2017-11-26T06:22:06.577Z,3.00
2017-11-26T06:24:35.361Z,3.00
2017-11-26T06:27:03.431Z,3.00
2017-11-26T06:29:31.452Z,3.00
2017-11-26T06:32:00.250Z,2.90
2017-11-26T06:34:29.795Z,2.80
2017-11-26T06:36:57.832Z,2.80
2017-11-26T06:39:25.879Z,2.90
2017-11-26T06:41:53.879Z,2.80
2017-11-26T06:44:21.909Z,2.80
2017-11-26T06:46:50.703Z,2.80
2017-11-26T06:49:19.514Z,2.80
2017-11-26T06:51:48.284Z,2.80
2017-11-26T06:54:16.301Z,2.80
2017-11-26T06:56:44.328Z,2.80
2017-11-26T06:59:12.356Z,2.90
2017-11-26T07:01:41.156Z,2.80
2017-11-26T07:04:09.938Z,2.90
2017-11-26T07:06:37.971Z,2.80
2017-11-26T07:09:05.983Z,2.90
2017-11-26T07:11:34.082Z,2.80
2017-11-26T07:14:02.136Z,2.80
2017-11-26T07:16:30.152Z,2.80
2017-11-26T07:18:58.186Z,2.70
2017-11-26T07:21:26.205Z,2.80
2017-11-26T07:23:54.249Z,2.80
2017-11-26T07:26:22.269Z,2.80
2017-11-26T07:28:50.302Z,2.80
2017-11-26T07:31:18.311Z,2.80
2017-11-26T07:33:46.360Z,2.80
2017-11-26T07:36:15.140Z,2.80
2017-11-26T07:38:43.204Z,2.80
2017-11-26T07:41:11.232Z,2.70
2017-11-26T07:43:40.004Z,2.80
2017-11-26T07:46:08.044Z,2.80
2017-11-26T07:48:36.056Z,2.80
2017-11-26T07:51:04.084Z,2.80
2017-11-26T07:53:32.103Z,2.80
2017-11-26T07:56:00.160Z,2.90
2017-11-26T07:58:28.175Z,2.90
2017-11-26T08:00:56.237Z,2.90
2017-11-26T08:03:24.268Z,2.80
2017-11-26T08:05:52.283Z,2.90
2017-11-26T08:08:21.096Z,3.00
2017-11-26T08:10:49.108Z,2.90
2017-11-26T08:13:17.141Z,2.90
2017-11-26T08:15:46.844Z,3.00
2017-11-26T08:18:14.916Z,3.00
2017-11-26T08:20:42.942Z,3.10
2017-11-26T08:23:11.758Z,3.10
2017-11-26T08:25:40.636Z,3.00
2017-11-26T08:28:09.419Z,3.10
2017-11-26T08:30:37.449Z,3.10
2017-11-26T08:33:05.462Z,3.20
2017-11-26T08:35:33.500Z,3.20
2017-11-26T08:38:01.531Z,3.10
2017-11-26T08:40:29.573Z,3.10
2017-11-26T08:42:57.592Z,3.20
2017-11-26T08:45:25.612Z,3.20
2017-11-26T08:47:53.656Z,3.20
2017-11-26T08:50:21.684Z,3.30
2017-11-26T08:52:50.726Z,3.40
2017-11-26T08:55:18.751Z,3.40
2017-11-26T08:57:46.778Z,3.40
2017-11-26T09:00:14.900Z,3.40
2017-11-26T09:02:42.932Z,3.50
2017-11-26T09:05:11.703Z,3.50
2017-11-26T09:07:50.474Z,3.50
2017-11-26T09:10:19.277Z,3.30
2017-11-26T09:12:48.087Z,3.40
2017-11-26T09:15:16.120Z,3.30
2017-11-26T09:17:44.208Z,3.50
2017-11-26T09:20:12.260Z,3.50
2017-11-26T09:22:40.277Z,3.60
2017-11-26T09:25:08.324Z,3.60
2017-11-26T09:27:36.344Z,3.70
2017-11-26T09:30:04.382Z,3.70
2017-11-26T09:32:32.408Z,3.70
2017-11-26T09:35:00.456Z,3.70
2017-11-26T09:37:28.480Z,3.80
2017-11-26T09:39:56.493Z,3.70
2017-11-26T09:42:25.291Z,3.70
2017-11-26T09:44:54.084Z,3.70
2017-11-26T09:47:22.172Z,3.70
2017-11-26T09:49:50.960Z,3.80
2017-11-26T09:52:19.024Z,3.80
2017-11-26T09:54:47.055Z,3.90
2017-11-26T09:57:15.114Z,3.80
2017-11-26T09:59:43.143Z,3.70
2017-11-26T10:02:11.152Z,3.80
2017-11-26T10:04:39.184Z,3.80
2017-11-26T10:07:07.201Z,3.90
2017-11-26T10:09:35.251Z,3.90
2017-11-26T10:12:03.280Z,3.90
2017-11-26T10:14:31.285Z,3.90
2017-11-26T10:17:00.862Z,3.80
2017-11-26T10:19:28.872Z,3.80
2017-11-26T10:21:56.910Z,3.80
2017-11-26T10:24:24.920Z,3.90
2017-11-26T10:26:52.980Z,3.90
2017-11-26T10:29:20.999Z,3.90
2017-11-26T10:31:49.077Z,3.90
2017-11-26T10:34:17.091Z,3.90
2017-11-26T10:36:45.111Z,4.10
2017-11-26T10:39:13.143Z,4.10
2017-11-26T10:41:41.164Z,4.10
2017-11-26T10:44:09.986Z,4.30
2017-11-26T10:46:38.000Z,4.30
2017-11-26T10:49:06.031Z,4.30
2017-11-26T10:51:34.835Z,4.30
2017-11-26T10:54:03.653Z,4.40
2017-11-26T10:56:31.668Z,4.40
2017-11-26T10:58:59.684Z,4.50
2017-11-26T11:01:28.498Z,4.40
2017-11-26T11:03:57.270Z,4.30
2017-11-26T11:06:25.301Z,4.20
2017-11-26T11:08:53.332Z,4.30
2017-11-26T11:11:21.373Z,4.00
2017-11-26T11:13:49.393Z,4.00
2017-11-26T11:16:17.423Z,4.00
2017-11-26T11:18:46.203Z,3.90
2017-11-26T11:21:15.003Z,4.00
2017-11-26T11:23:43.017Z,3.90
2017-11-26T11:26:11.053Z,3.90
2017-11-26T11:28:39.068Z,4.00
2017-11-26T11:31:07.869Z,4.10
2017-11-26T11:33:36.711Z,4.10
2017-11-26T11:36:04.740Z,4.00
2017-11-26T11:38:32.785Z,4.20
2017-11-26T11:41:00.812Z,4.30
2017-11-26T11:43:29.596Z,4.60
2017-11-26T11:45:57.644Z,4.60
2017-11-26T11:48:25.672Z,4.60
2017-11-26T11:50:53.680Z,4.70
2017-11-26T11:53:21.745Z,5.20
2017-11-26T11:55:49.784Z,5.10
2017-11-26T11:58:17.856Z,5.00
2017-11-26T12:00:45.913Z,4.80
2017-11-26T12:03:14.699Z,4.60
2017-11-26T12:05:43.483Z,4.50
2017-11-26T12:08:11.557Z,4.40
2017-11-26T12:10:39.576Z,4.40
2017-11-26T12:13:08.357Z,4.30
2017-11-26T12:15:36.392Z,4.30
2017-11-26T12:18:04.417Z,4.40
2017-11-26T12:20:34.315Z,4.30
2017-11-26T12:23:02.344Z,4.20
2017-11-26T12:25:31.257Z,4.20
2017-11-26T12:28:00.041Z,4.20
2017-11-26T12:30:30.355Z,4.20
2017-11-26T12:32:58.370Z,4.20
2017-11-26T12:35:27.233Z,4.30
2017-11-26T12:37:55.268Z,4.30
2017-11-26T12:40:24.069Z,4.20
2017-11-26T12:42:54.188Z,4.20
2017-11-26T12:45:22.972Z,4.20
2017-11-26T12:47:51.521Z,4.20
2017-11-26T12:50:21.305Z,4.20
2017-11-26T12:52:51.304Z,4.20
2017-11-26T12:55:20.044Z,4.20
2017-11-26T12:57:48.824Z,4.20
2017-11-26T13:00:16.867Z,4.10
2017-11-26T13:02:44.892Z,4.20
2017-11-26T13:05:12.920Z,4.20
2017-11-26T13:07:40.940Z,4.20
2017-11-26T13:10:09.000Z,4.20
2017-11-26T13:12:37.028Z,4.30
2017-11-26T13:15:05.034Z,4.30
2017-11-26T13:17:33.945Z,4.50
2017-11-26T13:20:01.964Z,4.50
2017-11-26T13:22:29.995Z,4.60
2017-11-26T13:24:58.777Z,5.00
2017-11-26T13:27:26.858Z,5.00
2017-11-26T13:29:54.871Z,5.10
2017-11-26T13:32:23.656Z,4.90
2017-11-26T13:34:51.689Z,4.80
2017-11-26T13:37:19.717Z,4.80
2017-11-26T13:39:47.747Z,4.70
2017-11-26T13:42:15.766Z,4.60
2017-11-26T13:44:43.813Z,4.60
2017-11-26T13:47:11.828Z,4.50
2017-11-26T13:49:39.853Z,4.50
2017-11-26T13:52:08.652Z,4.30
2017-11-26T13:54:37.437Z,4.30
2017-11-26T13:57:06.245Z,4.30
2017-11-26T13:59:34.288Z,4.30
2017-11-26T14:02:02.359Z,4.40
2017-11-26T14:04:30.397Z,4.30
2017-11-26T14:06:58.405Z,4.20
2017-11-26T14:09:26.436Z,4.20
2017-11-26T14:11:54.469Z,4.30
2017-11-26T14:14:22.535Z,4.20
2017-11-26T14:16:51.317Z,4.30
2017-11-26T14:19:20.899Z,4.30
2017-11-26T14:21:48.925Z,4.30
2017-11-26T14:24:16.968Z,4.40
2017-11-26T14:26:45.307Z,4.30
2017-11-26T14:29:14.108Z,4.30
2017-11-26T14:31:42.925Z,4.30
2017-11-26T14:35:10.789Z,4.30
2017-11-26T14:37:38.821Z,4.20
2017-11-26T14:40:06.840Z,4.30
2017-11-26T14:42:34.875Z,4.30
2017-11-26T14:45:02.900Z,4.30
2017-11-26T14:47:30.912Z,4.30
2017-11-26T14:49:58.972Z,4.30
2017-11-26T14:52:27.008Z,4.10
2017-11-26T14:54:55.029Z,4.20
2017-11-26T14:57:23.065Z,4.20
2017-11-26T14:59:51.080Z,4.10
2017-11-26T15:02:19.108Z,4.00
2017-11-26T15:04:47.132Z,4.00
2017-11-26T15:07:15.180Z,3.90
2017-11-26T15:09:43.212Z,4.00
2017-11-26T15:12:11.230Z,4.00
2017-11-26T15:14:39.270Z,4.00
2017-11-26T15:17:07.287Z,4.00
2017-11-26T15:19:35.333Z,4.00
2017-11-26T15:22:03.340Z,4.10
2017-11-26T15:24:31.381Z,4.00
2017-11-26T15:27:00.159Z,3.90
2017-11-26T15:29:28.176Z,3.80
2017-11-26T15:31:56.225Z,3.70
2017-11-26T15:34:25.744Z,3.70
2017-11-26T15:36:53.783Z,3.70
2017-11-26T15:39:21.812Z,3.70
2017-11-26T15:41:49.886Z,3.70
2017-11-26T15:44:17.903Z,3.60
2017-11-26T15:46:45.964Z,3.60
2017-11-26T15:49:13.984Z,3.60
2017-11-26T15:51:42.015Z,3.60
2017-11-26T15:54:10.044Z,3.70
2017-11-26T15:56:38.079Z,3.70
2017-11-26T15:59:06.116Z,3.70
2017-11-26T16:01:34.152Z,3.70
2017-11-26T16:04:02.235Z,3.70
2017-11-26T16:06:30.248Z,3.70
2017-11-26T16:08:59.028Z,3.70
2017-11-26T16:11:27.065Z,3.70
2017-11-26T16:13:55.108Z,3.70
2017-11-26T16:16:23.919Z,3.50
2017-11-26T16:18:52.734Z,3.50
2017-11-26T16:21:21.533Z,3.50
2017-11-26T16:23:49.563Z,3.50
2017-11-26T16:26:17.571Z,3.50
2017-11-26T16:28:46.368Z,3.50
2017-11-26T16:31:14.392Z,3.40
2017-11-26T16:33:42.424Z,3.50
2017-11-26T16:36:10.436Z,3.50
2017-11-26T16:38:39.235Z,3.40
2017-11-26T16:41:08.021Z,3.40
2017-11-26T16:43:36.085Z,3.40
2017-11-26T16:46:04.096Z,3.30
2017-11-26T16:48:32.872Z,3.40
2017-11-26T16:51:00.912Z,3.30
2017-11-26T16:53:28.937Z,3.40
2017-11-26T16:55:56.968Z,3.50
2017-11-26T16:58:24.991Z,3.40
2017-11-26T17:00:53.124Z,3.40
2017-11-26T17:03:21.156Z,3.40
2017-11-26T17:05:49.183Z,3.30
2017-11-26T17:08:17.975Z,3.20
2017-11-26T17:10:45.992Z,3.20
2017-11-26T17:13:14.029Z,3.30
2017-11-26T17:15:42.064Z,3.30
2017-11-26T17:18:10.120Z,3.20
2017-11-26T17:20:38.911Z,3.20
2017-11-26T17:23:07.696Z,3.30
2017-11-26T17:25:35.724Z,3.20
2017-11-26T17:28:03.744Z,3.30
2017-11-26T17:30:31.772Z,3.30
2017-11-26T17:33:00.564Z,3.20
2017-11-26T17:35:29.430Z,3.20
2017-11-26T17:37:57.441Z,3.10
2017-11-26T17:40:25.494Z,3.20
2017-11-26T17:43:01.055Z,3.00
2017-11-26T17:45:29.992Z,3.10
2017-11-26T17:47:59.720Z,3.00
2017-11-26T17:50:27.733Z,3.00
2017-11-26T17:52:55.798Z,2.90
2017-11-26T17:55:27.277Z,3.00
2017-11-26T17:57:55.332Z,2.90
2017-11-26T18:00:24.623Z,2.90
2017-11-26T18:02:52.728Z,2.90
2017-11-26T18:05:22.505Z,2.80
2017-11-26T18:07:55.360Z,2.80
2017-11-26T18:10:25.067Z,2.80
2017-11-26T18:15:31.516Z,2.80
2017-11-26T18:17:59.535Z,2.90
2017-11-26T18:20:27.550Z,2.90
2017-11-26T18:22:55.593Z,2.80
2017-11-26T18:25:23.644Z,2.80
2017-11-26T18:27:51.689Z,2.90
2017-11-26T18:30:19.708Z,2.90
2017-11-26T18:32:47.784Z,2.90
2017-11-26T18:35:27.529Z,3.00
2017-11-26T18:37:58.968Z,3.00
2017-11-26T18:40:27.793Z,3.00
2017-11-26T18:42:55.829Z,2.90
2017-11-26T18:45:25.163Z,3.00
2017-11-26T18:47:53.178Z,3.00
2017-11-26T18:50:21.220Z,2.90
2017-11-26T18:52:49.232Z,3.00
2017-11-26T18:55:56.559Z,3.00
2017-11-26T18:58:25.370Z,2.90
2017-11-26T19:00:54.150Z,3.00
2017-11-26T19:03:22.945Z,3.00
2017-11-26T19:05:50.984Z,2.90
2017-11-26T19:10:58.163Z,3.10
2017-11-26T19:13:26.216Z,3.00
2017-11-26T19:15:54.424Z,3.10
2017-11-26T19:18:23.224Z,3.10
2017-11-26T19:20:51.258Z,3.10
2017-11-26T19:23:19.284Z,3.10
2017-11-26T19:25:48.184Z,3.10
2017-11-26T19:28:16.236Z,3.10
2017-11-26T19:30:44.244Z,3.10
2017-11-26T19:33:12.290Z,3.10
2017-11-26T19:35:40.307Z,3.10
2017-11-26T19:38:08.372Z,3.10
2017-11-26T19:40:36.388Z,3.20
2017-11-26T19:43:04.400Z,3.20
2017-11-26T19:45:33.200Z,3.30
2017-11-26T19:48:01.997Z,3.30
2017-11-26T19:50:30.867Z,3.30
2017-11-26T19:52:58.984Z,3.20
2017-11-26T19:55:27.083Z,3.20
2017-11-26T19:57:55.876Z,3.30
2017-11-26T20:00:24.670Z,3.40
2017-11-26T20:02:52.781Z,3.30
2017-11-26T20:05:20.824Z,3.40
2017-11-26T20:07:48.848Z,3.40
2017-11-26T20:10:16.872Z,3.40
2017-11-26T20:12:44.930Z,3.40
2017-11-26T20:15:12.946Z,3.40
2017-11-26T20:17:40.977Z,3.40
2017-11-26T20:20:09.763Z,3.40
2017-11-26T20:22:38.541Z,3.40
2017-11-26T20:25:06.572Z,3.30
2017-11-26T20:27:34.589Z,3.40
2017-11-26T20:30:02.616Z,3.40
2017-11-26T20:32:31.409Z,3.50
2017-11-26T20:35:00.217Z,3.40
2017-11-26T20:37:28.996Z,3.40
2017-11-26T20:39:57.036Z,3.40
2017-11-26T20:42:25.086Z,3.40
2017-11-26T20:44:53.869Z,3.40
2017-11-26T20:47:21.945Z,3.40
2017-11-26T20:49:49.960Z,3.40
2017-11-26T20:52:17.988Z,3.40
2017-11-26T20:54:46.020Z,3.40
2017-11-26T20:57:14.799Z,3.50
2017-11-26T20:59:42.852Z,3.50
2017-11-26T21:02:10.868Z,3.50
2017-11-26T21:04:39.111Z,3.40
2017-11-26T21:07:07.139Z,3.40
2017-11-26T21:09:35.151Z,3.50
2017-11-26T21:12:03.205Z,3.50
2017-11-26T21:14:31.212Z,3.50
2017-11-26T21:17:00.038Z,3.50
2017-11-26T21:19:28.049Z,3.50
2017-11-26T21:21:56.120Z,3.60
2017-11-26T21:24:24.146Z,3.50
2017-11-26T21:26:52.171Z,3.50
2017-11-26T21:29:20.201Z,3.50
2017-11-26T21:31:48.224Z,3.50
2017-11-26T21:34:16.264Z,3.40
2017-11-26T21:36:44.275Z,3.50
2017-11-26T21:39:13.096Z,3.50
2017-11-26T21:41:41.129Z,3.40
2017-11-26T21:44:09.141Z,3.50
2017-11-26T21:46:37.940Z,3.50
2017-11-26T21:49:06.729Z,3.50
2017-11-26T21:51:34.756Z,3.50
2017-11-26T21:54:02.768Z,3.50
2017-11-26T21:56:30.825Z,3.50
2017-11-26T21:58:58.845Z,3.40
2017-11-26T22:01:26.861Z,3.40
2017-11-26T22:03:54.948Z,3.50
2017-11-26T22:06:23.740Z,3.40
2017-11-26T22:08:51.768Z,3.40
2017-11-26T22:11:19.790Z,3.40
2017-11-26T22:13:47.842Z,3.40
2017-11-26T22:16:15.852Z,3.40
2017-11-26T22:18:45.380Z,3.40
2017-11-26T22:21:13.420Z,3.40
2017-11-26T22:23:41.440Z,3.40
2017-11-26T22:26:09.476Z,3.40
2017-11-26T22:28:37.484Z,3.50
2017-11-26T22:31:05.511Z,3.50
2017-11-26T22:33:34.296Z,3.40
2017-11-26T22:36:02.332Z,3.40
2017-11-26T22:38:30.349Z,3.40
2017-11-26T22:40:58.405Z,3.40
2017-11-26T22:43:26.422Z,3.50
2017-11-26T22:45:54.431Z,3.40
2017-11-26T22:48:23.240Z,3.50
2017-11-26T22:50:52.017Z,3.50
2017-11-26T22:53:20.824Z,3.50
2017-11-26T22:55:49.623Z,3.50
2017-11-26T22:58:17.675Z,3.50
2017-11-26T23:00:45.689Z,3.60
2017-11-26T23:03:14.494Z,3.50
2017-11-26T23:05:43.275Z,3.50
2017-11-26T23:08:11.312Z,3.50
2017-11-26T23:10:39.340Z,3.50
2017-11-26T23:13:07.400Z,3.50
2017-11-26T23:15:35.416Z,3.50
2017-11-26T23:18:03.440Z,3.50
2017-11-26T23:20:31.460Z,3.50
2017-11-26T23:22:59.482Z,3.40
2017-11-26T23:25:28.280Z,3.40
2017-11-26T23:27:57.068Z,3.40
2017-11-26T23:30:25.149Z,3.30
2017-11-26T23:32:53.159Z,3.50
2017-11-26T23:35:21.197Z,3.40
2017-11-26T23:37:49.228Z,3.40
2017-11-26T23:40:18.003Z,3.40
2017-11-26T23:42:46.802Z,3.40
2017-11-26T23:45:14.829Z,3.30
2017-11-26T23:47:42.876Z,3.40
2017-11-26T23:50:11.656Z,3.40
2017-11-26T23:52:39.672Z,3.30
2017-11-26T23:55:08.467Z,3.30
2017-11-26T23:57:37.253Z,3.30
